Time;durP1;ratioP1;P1;durP2;ratioP2;P2;SDS_P1;SDS_P2;PMS_P1;PMS_P2;Temp;Humidity;BMP_temperature;BMP_pressure;BME280_temperature;BME280_humidity;BME280_pressure;Samples;Min_cycle;Max_cycle;Signal;HPM_P1;HPM_P2
2023/08/05 00:01:07;;;;;;;3.40;1.05;;;;;;;20.98;51.10;101642.88;16108981;19;129314;-52
2023/08/05 00:06:29;;;;;;;2.95;0.90;;;;;;;20.97;51.35;101641.16;16116690;19;129527;-56
2023/08/05 00:11:51;;;;;;;3.88;0.98;;;;;;;20.94;51.31;101642.50;16119175;19;130055;-57
2023/08/05 00:17:13;;;;;;;4.13;1.10;;;;;;;20.95;51.35;101649.78;16114851;19;129507;-55
2023/08/05 00:22:35;;;;;;;3.65;1.35;;;;;;;20.94;51.21;101645.28;16118324;19;130592;-52
2023/08/05 00:27:57;;;;;;;1.77;0.70;;;;;;;20.93;51.53;101645.53;16115814;19;129962;-53
2023/08/05 00:33:19;;;;;;;3.42;0.73;;;;;;;20.92;51.51;101650.25;16113545;19;130895;-52
2023/08/05 00:38:41;;;;;;;1.65;0.65;;;;;;;20.90;51.53;101636.59;16094375;19;131704;-54
2023/08/05 00:44:03;;;;;;;3.50;1.00;;;;;;;20.92;51.53;101632.72;16095063;19;132201;-54
2023/08/05 00:49:25;;;;;;;2.85;0.90;;;;;;;20.90;51.38;101608.78;16104974;19;130825;-51
2023/08/05 00:54:48;;;;;;;2.03;0.70;;;;;;;20.88;51.29;101594.28;16109506;19;129962;-52
2023/08/05 01:00:10;;;;;;;2.28;0.90;;;;;;;20.89;51.47;101598.75;16112851;19;130047;-53
2023/08/05 01:05:33;;;;;;;1.27;0.65;;;;;;;20.87;51.35;101600.94;16105032;19;130294;-49
2023/08/05 01:10:55;;;;;;;4.70;1.05;;;;;;;20.86;51.49;101602.03;16110723;19;129597;-55
2023/08/05 01:16:17;;;;;;;3.38;0.70;;;;;;;20.87;51.78;101592.59;16110747;19;130013;-49
2023/08/05 01:21:49;;;;;;;1.23;0.60;;;;;;;20.86;51.61;101602.03;16113404;19;130257;-51
2023/08/05 01:27:11;;;;;;;3.70;0.75;;;;;;;20.86;51.51;101604.81;16108833;19;130503;-50
2023/08/05 01:32:36;;;;;;;2.95;0.63;;;;;;;20.86;51.75;101610.34;16112481;19;130217;-51
2023/08/05 01:37:58;;;;;;;2.55;0.70;;;;;;;20.85;51.30;101607.84;16110149;19;130885;-52
2023/08/05 01:43:20;;;;;;;1.48;1.00;;;;;;;20.84;51.85;101611.72;16113686;19;131063;-50
2023/08/05 01:48:42;;;;;;;1.88;0.75;;;;;;;20.84;51.42;101608.94;16109370;19;130932;-51
2023/08/05 01:54:04;;;;;;;2.95;0.70;;;;;;;20.83;51.47;101601.66;16111123;19;130660;-52
2023/08/05 01:59:26;;;;;;;1.40;0.70;;;;;;;20.82;51.77;101584.13;16109611;19;131017;-50
2023/08/05 02:04:48;;;;;;;1.95;0.70;;;;;;;20.81;51.60;101582.44;16111664;19;130708;-52
2023/08/05 02:10:11;;;;;;;1.88;0.70;;;;;;;20.81;51.86;101582.44;16107400;19;130178;-51
2023/08/05 02:15:33;;;;;;;2.25;0.68;;;;;;;20.80;51.54;101571.56;16111375;19;129525;-52
2023/08/05 02:20:55;;;;;;;0.60;0.52;;;;;;;20.79;51.50;101556.81;16108795;19;130734;-52
2023/08/05 02:26:17;;;;;;;2.45;0.93;;;;;;;20.79;51.67;101539.28;16108194;19;130030;-50
2023/08/05 02:31:39;;;;;;;1.77;0.60;;;;;;;20.78;51.78;101530.09;16108335;19;130271;-47
2023/08/05 02:37:01;;;;;;;2.03;0.77;;;;;;;20.77;51.53;101525.63;16104293;19;131138;-52
2023/08/05 02:42:23;;;;;;;3.33;0.77;;;;;;;20.76;51.71;101526.72;16105928;19;130682;-48
2023/08/05 02:47:46;;;;;;;1.45;0.55;;;;;;;20.76;51.73;101532.28;16110731;19;129518;-47
2023/08/05 02:53:08;;;;;;;1.58;0.75;;;;;;;20.76;51.56;101535.06;16104131;19;130903;-47
2023/08/05 02:58:30;;;;;;;1.15;0.63;;;;;;;20.75;51.66;101536.13;16104925;19;130622;-49
2023/08/05 03:03:52;;;;;;;0.98;0.68;;;;;;;20.74;51.68;101528.88;16111945;19;129490;-52
2023/08/05 03:09:14;;;;;;;1.33;0.60;;;;;;;20.74;51.46;101520.53;16107113;19;130657;-50
2023/08/05 03:14:36;;;;;;;0.68;0.45;;;;;;;20.73;51.58;101518.84;16113762;19;130150;-51
2023/08/05 03:20:02;;;;;;;2.40;0.73;;;;;;;20.73;51.43;101513.28;16123093;19;130753;-50
2023/08/05 03:25:26;;;;;;;1.83;0.60;;;;;;;20.73;51.87;101496.59;16115239;19;130698;-54
2023/08/05 03:30:49;;;;;;;2.60;0.60;;;;;;;20.72;52.18;101494.91;16119085;19;129856;-49
2023/08/05 03:36:11;;;;;;;1.88;0.50;;;;;;;20.71;51.53;101498.78;16120549;19;129984;-48
2023/08/05 03:41:34;;;;;;;1.08;0.55;;;;;;;20.71;51.69;101498.78;16125345;19;130536;-48
2023/08/05 03:46:56;;;;;;;0.57;0.47;;;;;;;20.70;52.04;101486.81;16116541;19;129582;-49
2023/08/05 03:52:18;;;;;;;0.85;0.50;;;;;;;20.70;52.03;101475.69;16120798;19;130036;-47
2023/08/05 03:57:40;;;;;;;1.23;0.60;;;;;;;20.69;51.66;101454.53;16117563;19;135680;-50
2023/08/05 04:03:03;;;;;;;1.65;0.45;;;;;;;20.69;51.59;101459.25;16121164;19;130682;-50
2023/08/05 04:08:26;;;;;;;0.55;0.45;;;;;;;20.68;51.75;101455.63;16114281;19;130740;-52
2023/08/05 04:13:51;;;;;;;1.08;0.38;;;;;;;20.69;52.13;101448.13;16124261;19;130355;-48
2023/08/05 04:19:13;;;;;;;1.43;0.67;;;;;;;20.69;51.77;101439.78;16115248;19;130484;-49
2023/08/05 04:24:36;;;;;;;0.93;0.40;;;;;;;20.68;51.64;101432.53;16112865;19;129792;-49
2023/08/05 04:29:58;;;;;;;1.27;0.60;;;;;;;20.67;51.81;101426.13;16119578;19;129370;-47
2023/08/05 04:35:20;;;;;;;2.38;0.40;;;;;;;20.66;51.99;101418.88;16119013;19;130704;-51
2023/08/05 04:40:42;;;;;;;1.40;0.50;;;;;;;20.66;51.53;101418.88;16115313;19;130428;-51
2023/08/05 04:46:04;;;;;;;1.15;0.50;;;;;;;20.66;52.00;101423.63;16115938;19;130932;-48
2023/08/05 04:51:26;;;;;;;0.70;0.40;;;;;;;20.64;52.00;101398.81;16110532;19;129976;-50
2023/08/05 04:56:48;;;;;;;0.35;0.30;;;;;;;20.63;51.58;101399.91;16108772;19;131718;-53
2023/08/05 05:02:10;;;;;;;0.82;0.50;;;;;;;20.63;51.97;101399.09;16115968;19;130410;-51
2023/08/05 05:07:32;;;;;;;0.95;0.30;;;;;;;20.62;51.60;101394.63;16106035;19;132206;-53
2023/08/05 05:12:57;;;;;;;0.88;0.35;;;;;;;20.64;51.77;101386.88;16114138;19;130189;-53
2023/08/05 05:18:19;;;;;;;1.38;0.50;;;;;;;20.62;51.94;101383.50;16114310;19;130809;-52
2023/08/05 05:23:41;;;;;;;1.05;0.60;;;;;;;20.62;51.64;101394.63;16111577;19;130728;-51
2023/08/05 05:29:03;;;;;;;0.57;0.50;;;;;;;20.60;52.08;101392.94;16111228;19;129900;-50
2023/08/05 05:34:26;;;;;;;2.65;0.50;;;;;;;20.66;51.66;101381.91;16113993;19;130212;-53
2023/08/05 05:39:47;;;;;;;3.10;0.73;;;;;;;20.69;51.58;101368.34;16114871;19;130508;-48
2023/08/05 05:45:10;;;;;;;6.95;0.73;;;;;;;20.73;51.52;101368.69;16113732;19;129490;-53
2023/08/05 05:50:32;;;;;;;4.80;0.63;;;;;;;20.75;51.66;101352.59;16112468;19;130265;-52
2023/08/05 05:55:54;;;;;;;21.65;1.98;;;;;;;20.74;50.75;101364.81;16114803;19;130023;-50
2023/08/05 06:01:16;;;;;;;10.45;1.85;;;;;;;20.70;50.13;101360.84;16112631;19;131191;-47
2023/08/05 06:06:38;;;;;;;4.93;1.60;;;;;;;20.71;50.07;101365.31;16115161;19;131254;-51
2023/08/05 06:12:00;;;;;;;5.75;1.42;;;;;;;20.74;50.33;101354.53;16113373;19;135698;-52
2023/08/05 06:17:22;;;;;;;4.28;1.38;;;;;;;20.77;50.27;101356.03;16106432;19;129551;-55
2023/08/05 06:22:44;;;;;;;4.55;1.40;;;;;;;20.79;50.14;101366.88;16112682;19;129701;-48
2023/08/05 06:28:06;;;;;;;5.50;1.40;;;;;;;20.80;49.87;101363.84;16112895;19;129199;-51
2023/08/05 06:33:28;;;;;;;5.50;1.38;;;;;;;20.83;49.95;101374.47;16108865;19;129780;-47
2023/08/05 06:38:50;;;;;;;2.72;1.23;;;;;;;20.88;49.76;101355.09;16113555;19;129536;-49
2023/08/05 06:44:12;;;;;;;5.88;1.25;;;;;;;20.93;49.69;101357.13;16111554;19;129480;-50
2023/08/05 06:49:35;;;;;;;6.40;1.52;;;;;;;20.96;49.90;101356.63;16117416;19;130369;-52
2023/08/05 06:55:00;;;;;;;8.07;1.17;;;;;;;20.97;49.64;101346.34;16128363;19;129689;-54
2023/08/05 07:00:22;;;;;;;4.57;1.30;;;;;;;20.98;49.57;101336.91;16127946;19;130367;-55
2023/08/05 07:05:44;;;;;;;2.55;1.38;;;;;;;21.01;49.56;101330.84;16123983;19;130275;-51
2023/08/05 07:11:06;;;;;;;7.72;1.60;;;;;;;21.04;49.37;101335.91;16122386;19;129996;-54
2023/08/05 07:16:28;;;;;;;4.05;1.20;;;;;;;21.07;49.94;101321.47;16123034;19;129457;-55
2023/08/05 07:21:51;;;;;;;4.05;1.20;;;;;;;21.07;49.85;101310.34;16117405;19;130597;-54
2023/08/05 07:27:13;;;;;;;4.28;1.17;;;;;;;21.06;49.93;101308.66;16116541;19;130265;-59
2023/08/05 07:32:35;;;;;;;5.40;1.40;;;;;;;21.04;50.17;101308.09;16124422;19;130290;-51
2023/08/05 07:37:57;;;;;;;4.78;1.20;;;;;;;21.13;49.68;101306.56;16123535;19;130910;-53
2023/08/05 07:43:22;;;;;;;7.80;1.40;;;;;;;21.16;49.94;101299.63;16115111;19;131043;-54
2023/08/05 07:48:47;;;;;;;7.00;1.90;;;;;;;21.16;49.78;101286.56;16113774;19;130886;-53
2023/08/05 07:54:09;;;;;;;2.60;1.20;;;;;;;21.13;50.22;101273.16;16119228;19;131381;-53
2023/08/05 07:59:31;;;;;;;5.75;1.58;;;;;;;21.12;49.83;101281.75;16114599;19;131636;-54
2023/08/05 08:04:54;;;;;;;6.60;1.65;;;;;;;21.09;50.23;101282.28;16119276;19;129202;-52
2023/08/05 08:10:16;;;;;;;4.22;1.35;;;;;;;21.09;49.91;101260.84;16119515;19;130091;-53
2023/08/05 08:15:38;;;;;;;5.10;1.42;;;;;;;21.10;50.11;101251.41;16116082;19;129720;-51
2023/08/05 08:21:00;;;;;;;5.93;1.48;;;;;;;21.10;50.20;101256.97;16120208;19;131552;-52
2023/08/05 08:26:22;;;;;;;6.32;1.77;;;;;;;21.11;49.95;101236.41;16122197;19;130702;-52
2023/08/05 08:31:44;;;;;;;6.35;1.45;;;;;;;21.13;50.18;101236.16;16121379;19;130680;-56
2023/08/05 08:37:06;;;;;;;6.00;1.50;;;;;;;21.16;49.74;101225.38;16123692;19;130799;-52
2023/08/05 08:42:31;;;;;;;5.07;1.77;;;;;;;21.20;49.91;101220.13;16121009;19;129844;-54
2023/08/05 08:47:53;;;;;;;5.38;1.92;;;;;;;21.20;49.91;101207.03;16116275;19;130827;-52
2023/08/05 08:53:15;;;;;;;5.70;2.00;;;;;;;21.21;49.63;101205.94;16118459;19;133433;-52
2023/08/05 08:58:37;;;;;;;6.35;1.95;;;;;;;21.17;49.78;101196.41;16114365;19;131010;-55
2023/08/05 09:04:00;;;;;;;8.45;2.20;;;;;;;21.16;49.88;101200.34;16113382;19;130282;-53
2023/08/05 09:09:22;;;;;;;7.88;1.83;;;;;;;21.14;49.82;101196.97;16117957;19;129508;-51
2023/08/05 09:14:44;;;;;;;6.18;2.30;;;;;;;21.14;49.74;101190.53;16118290;19;130751;-53
2023/08/05 09:20:16;;;;;;;5.00;1.83;;;;;;;21.14;49.85;101174.69;16116194;19;129426;-51
2023/08/05 09:25:40;;;;;;;5.32;2.10;;;;;;;21.11;49.60;101175.22;16115162;19;130768;-50
2023/08/05 09:31:16;;;;;;;4.05;1.85;;;;;;;21.12;49.76;101171.34;16115636;19;129565;-48
2023/08/05 09:36:39;;;;;;;3.78;2.13;;;;;;;21.15;49.23;101156.06;16117450;19;130815;-56
2023/08/05 09:42:02;;;;;;;4.53;1.90;;;;;;;21.12;49.26;101140.72;16125871;19;130632;-58
2023/08/05 09:47:28;;;;;;;3.92;1.65;;;;;;;21.12;49.30;101149.06;16131899;19;130293;-56
2023/08/05 09:52:55;;;;;;;6.90;1.80;;;;;;;21.12;49.49;101139.88;16137597;19;130641;-57
2023/08/05 09:58:17;;;;;;;5.38;1.80;;;;;;;21.09;49.54;101138.47;16139012;19;130206;-57
2023/08/05 10:03:39;;;;;;;4.15;1.75;;;;;;;21.13;49.05;101117.38;16132952;19;130538;-55
2023/08/05 10:09:01;;;;;;;5.85;1.80;;;;;;;21.12;49.30;101100.94;16139457;19;131709;-55
2023/08/05 10:14:27;;;;;;;4.25;1.70;;;;;;;21.11;49.06;101107.63;16129752;19;129382;-54
2023/08/05 10:19:50;;;;;;;5.35;1.83;;;;;;;21.07;48.91;101107.28;16131064;19;130052;-54
2023/08/05 10:25:48;;;;;;;3.92;1.77;;;;;;;21.04;48.81;101105.03;16123945;19;129330;-52
2023/08/05 10:31:24;;;;;;;3.35;1.77;;;;;;;21.00;48.24;101089.94;16123298;19;131683;-55
2023/08/05 10:36:50;;;;;;;5.60;1.77;;;;;;;20.96;48.44;101092.41;16132247;19;129374;-58
2023/08/05 10:42:17;;;;;;;4.60;1.75;;;;;;;20.97;48.44;101091.31;16133908;19;129944;-57
2023/08/05 10:47:47;;;;;;;3.92;1.65;;;;;;;20.95;48.71;101103.78;16131314;19;130547;-58
2023/08/05 10:53:12;;;;;;;3.70;1.50;;;;;;;20.94;49.02;101099.31;16133778;19;131143;-59
2023/08/05 10:58:36;;;;;;;3.65;1.45;;;;;;;20.93;49.03;101089.28;16131533;19;131105;-59
2023/08/05 11:03:58;;;;;;;8.10;1.70;;;;;;;20.92;48.62;101076.50;16129070;19;130405;-59
2023/08/05 11:09:21;;;;;;;3.85;1.58;;;;;;;20.90;49.07;101066.47;16133989;19;134218;-57
2023/08/05 11:14:43;;;;;;;7.15;1.77;;;;;;;20.90;48.88;101052.56;16126908;19;130116;-57
2023/08/05 11:20:09;;;;;;;6.43;1.70;;;;;;;20.92;48.67;101034.78;16121048;19;131182;-58
2023/08/05 11:25:31;;;;;;;4.43;1.50;;;;;;;20.93;48.52;101028.09;16117801;19;130536;-58
2023/08/05 11:30:54;;;;;;;3.63;1.45;;;;;;;20.92;48.84;101038.41;16115778;19;129637;-58
2023/08/05 11:36:16;;;;;;;2.83;1.58;;;;;;;20.92;48.99;101032.00;16117444;19;131650;-57
2023/08/05 11:41:38;;;;;;;5.35;1.50;;;;;;;20.89;49.04;101022.22;16127567;19;129705;-59
2023/08/05 11:47:03;;;;;;;3.67;1.30;;;;;;;20.89;48.75;101008.31;16132151;19;130602;-57
2023/08/05 11:52:29;;;;;;;2.83;1.48;;;;;;;20.86;48.59;101025.53;16131787;19;129935;-56
2023/08/05 11:58:02;;;;;;;3.05;1.70;;;;;;;20.86;48.79;101029.16;16126409;19;131264;-57
2023/08/05 12:03:31;;;;;;;4.55;1.63;;;;;;;20.86;48.93;101040.28;16117038;19;130856;-55
2023/08/05 12:08:59;;;;;;;4.95;1.80;;;;;;;20.87;49.05;101030.84;16120120;19;129862;-58
2023/08/05 12:14:21;;;;;;;5.72;1.30;;;;;;;20.86;49.07;101018.03;16121241;19;130372;-58
2023/08/05 12:19:44;;;;;;;5.70;1.77;;;;;;;20.88;48.76;101026.09;16117893;19;130236;-56
2023/08/05 12:25:06;;;;;;;6.65;1.40;;;;;;;20.89;48.95;101025.00;16121602;19;131709;-57
2023/08/05 12:30:28;;;;;;;7.45;1.70;;;;;;;20.88;48.98;100999.16;16118305;19;129286;-57
2023/08/05 12:35:50;;;;;;;37.78;4.63;;;;;;;20.94;49.08;100990.84;16117400;19;131535;-54
2023/08/05 12:41:12;;;;;;;31.65;2.47;;;;;;;20.95;48.95;100984.19;16121606;19;130693;-56
2023/08/05 12:46:34;;;;;;;24.98;2.78;;;;;;;20.99;49.10;100988.13;16112855;19;130905;-50
2023/08/05 12:51:56;;;;;;;16.35;2.17;;;;;;;21.00;49.05;100973.13;16121558;19;131057;-55
2023/08/05 12:57:22;;;;;;;14.15;2.17;;;;;;;21.01;49.09;100969.25;16124791;19;129783;-59
2023/08/05 13:02:48;;;;;;;18.27;2.42;;;;;;;21.04;49.07;100954.81;16118454;19;131118;-57
2023/08/05 13:08:11;;;;;;;17.15;2.78;;;;;;;21.05;49.14;100943.44;16117043;19;129876;-56
2023/08/05 13:13:33;;;;;;;16.88;2.38;;;;;;;21.07;49.27;100915.34;16114697;19;129473;-56
2023/08/05 13:18:55;;;;;;;16.02;2.25;;;;;;;21.09;49.29;100918.69;16118247;19;130948;-55
2023/08/05 13:24:17;;;;;;;18.70;3.00;;;;;;;21.13;49.04;100910.66;16118642;19;131490;-56
2023/08/05 13:29:39;;;;;;;13.13;2.50;;;;;;;21.14;49.31;100907.63;16113702;19;130390;-54
2023/08/05 13:35:02;;;;;;;36.30;3.42;;;;;;;21.15;49.28;100889.00;16111545;19;130451;-56
2023/08/05 13:40:26;;;;;;;24.38;2.60;;;;;;;21.14;49.29;100885.38;16106767;19;131413;-58
2023/08/05 13:45:53;;;;;;;16.05;2.38;;;;;;;21.17;48.82;100867.31;16114991;19;129740;-58
2023/08/05 13:51:15;;;;;;;12.88;1.88;;;;;;;21.16;49.03;100844.22;16113000;19;129678;-55
2023/08/05 13:56:37;;;;;;;28.70;2.33;;;;;;;21.19;49.01;100837.28;16111419;19;130945;-56
2023/08/05 14:02:03;;;;;;;12.52;1.75;;;;;;;21.20;48.94;100828.66;16105875;19;130978;-54
2023/08/05 14:07:26;;;;;;;12.48;1.88;;;;;;;21.22;48.90;100825.63;16109431;19;129510;-58
2023/08/05 14:12:48;;;;;;;6.35;1.20;;;;;;;21.24;48.62;100809.50;16102187;19;131242;-54
2023/08/05 14:18:11;;;;;;;5.28;1.33;;;;;;;21.26;48.90;100803.69;16112084;19;131610;-59
2023/08/05 14:23:33;;;;;;;15.32;1.52;;;;;;;21.27;48.95;100805.34;16117018;19;130597;-58
2023/08/05 14:28:55;;;;;;;7.78;1.52;;;;;;;21.27;48.88;100808.97;16116835;19;129865;-60
2023/08/05 14:34:17;;;;;;;7.22;1.42;;;;;;;21.28;48.65;100801.47;16112025;19;130135;-55
2023/08/05 14:39:39;;;;;;;4.55;1.55;;;;;;;21.27;48.87;100788.66;16114474;19;129854;-59
2023/08/05 14:45:01;;;;;;;7.40;1.77;;;;;;;21.27;48.72;100761.66;16111517;19;130849;-61
2023/08/05 14:50:23;;;;;;;9.95;1.40;;;;;;;21.29;48.81;100741.94;16111051;19;130190;-61
2023/08/05 14:55:57;;;;;;;11.63;1.75;;;;;;;21.33;49.13;100737.50;16113506;19;129393;-60
2023/08/05 15:01:20;;;;;;;13.52;1.63;;;;;;;21.36;49.18;100745.31;16112552;19;129421;-65
2023/08/05 15:06:42;;;;;;;8.15;1.92;;;;;;;21.38;48.96;100734.75;16114165;19;130010;-60
2023/08/05 15:12:04;;;;;;;6.13;1.40;;;;;;;21.39;48.91;100733.66;16111943;19;130538;-62
2023/08/05 15:17:26;;;;;;;9.23;1.58;;;;;;;21.38;48.85;100715.28;16121931;19;130756;-62
2023/08/05 15:22:48;;;;;;;15.00;1.65;;;;;;;21.40;49.13;100701.94;16126318;19;132711;-73
2023/08/05 15:28:10;;;;;;;13.15;1.65;;;;;;;21.40;49.34;100679.66;16118497;19;129561;-61
2023/08/05 15:33:32;;;;;;;7.82;1.88;;;;;;;21.42;49.53;100663.50;16120725;19;131542;-63
2023/08/05 15:38:54;;;;;;;17.05;2.03;;;;;;;21.43;49.27;100653.22;16127382;19;129861;-76
2023/08/05 15:44:16;;;;;;;12.45;1.90;;;;;;;21.42;49.20;100641.25;16134971;19;129908;-74
2023/08/05 15:49:38;;;;;;;8.77;1.85;;;;;;;21.40;49.13;100631.50;16132032;19;130850;-72
2023/08/05 15:55:01;;;;;;;9.75;1.63;;;;;;;21.38;49.30;100617.88;16129116;19;133717;-70
2023/08/05 16:00:23;;;;;;;11.23;1.70;;;;;;;21.35;49.15;100615.63;16122860;19;129668;-71
2023/08/05 16:05:45;;;;;;;11.00;1.92;;;;;;;21.31;49.31;100606.13;16119979;19;130499;-70
2023/08/05 16:11:12;;;;;;;11.90;1.70;;;;;;;21.28;49.09;100601.97;16118145;19;129789;-69
2023/08/05 16:16:34;;;;;;;13.02;2.25;;;;;;;21.25;49.47;100590.56;16122207;19;130699;-70
2023/08/05 16:21:56;;;;;;;10.40;3.03;;;;;;;21.21;49.56;100593.88;16127309;19;129415;-69
2023/08/05 16:27:18;;;;;;;16.95;2.78;;;;;;;21.19;49.28;100576.59;16126870;19;129562;-69
2023/08/05 16:32:41;;;;;;;16.08;2.60;;;;;;;21.18;49.52;100580.50;16124051;19;133847;-66
2023/08/05 16:38:03;;;;;;;21.60;3.35;;;;;;;21.17;49.64;100562.13;16124082;19;129957;-68
2023/08/05 16:43:25;;;;;;;20.05;3.78;;;;;;;21.17;49.91;100559.34;16122456;19;131013;-67
2023/08/05 16:48:48;;;;;;;26.90;3.83;;;;;;;21.19;49.87;100559.09;16123016;19;129702;-67
2023/08/05 16:54:10;;;;;;;23.38;3.38;;;;;;;21.20;49.82;100552.44;16116287;19;130493;-65
2023/08/05 16:59:31;;;;;;;18.58;4.07;;;;;;;21.19;50.00;100531.28;16123738;19;129630;-64
2023/08/05 17:04:55;;;;;;;25.48;4.28;;;;;;;21.20;49.83;100522.66;16119795;19;130995;-67
2023/08/05 17:10:17;;;;;;;22.85;4.03;;;;;;;21.22;49.73;100523.22;16120933;19;129525;-65
2023/08/05 17:15:44;;;;;;;23.02;3.92;;;;;;;21.27;50.17;100521.56;16119187;19;131274;-66
2023/08/05 17:21:06;;;;;;;26.25;4.55;;;;;;;21.26;50.36;100511.56;16120434;19;129925;-66
2023/08/05 17:26:28;;;;;;;23.98;3.42;;;;;;;21.26;50.51;100514.34;16117248;19;129773;-64
2023/08/05 17:31:50;;;;;;;21.30;3.15;;;;;;;21.24;50.18;100500.69;16116092;19;129800;-66
2023/08/05 17:37:13;;;;;;;21.23;4.22;;;;;;;21.25;50.38;100504.31;16117985;19;130042;-66
2023/08/05 17:42:35;;;;;;;22.98;3.80;;;;;;;21.26;50.18;100494.84;16118543;19;130518;-66
2023/08/05 17:47:57;;;;;;;24.38;3.67;;;;;;;21.27;50.02;100488.19;16113862;19;131087;-66
2023/08/05 17:53:19;;;;;;;17.40;3.28;;;;;;;21.27;50.45;100485.41;16115483;19;131654;-72
2023/08/05 17:58:47;;;;;;;26.48;4.20;;;;;;;21.25;50.26;100479.28;16112094;19;131031;-66
2023/08/05 18:04:10;;;;;;;19.90;3.38;;;;;;;21.24;50.08;100477.59;16114964;19;130831;-65
2023/08/05 18:09:32;;;;;;;12.80;2.85;;;;;;;21.22;50.59;100470.34;16112570;19;131008;-63
2023/08/05 18:14:54;;;;;;;23.98;3.63;;;;;;;21.20;50.36;100468.97;16113974;19;130811;-64
2023/08/05 18:20:16;;;;;;;22.42;3.03;;;;;;;21.19;50.34;100462.56;16113402;19;129773;-66
2023/08/05 18:25:38;;;;;;;11.82;3.05;;;;;;;21.19;50.34;100450.59;16117274;19;129711;-65
2023/08/05 18:31:01;;;;;;;19.45;3.28;;;;;;;21.20;50.50;100449.50;16114084;19;132256;-65
2023/08/05 18:36:23;;;;;;;13.25;2.58;;;;;;;21.19;50.54;100443.09;16113467;19;129661;-65
2023/08/05 18:41:46;;;;;;;12.82;2.50;;;;;;;21.18;50.56;100444.19;16111900;19;131140;-64
2023/08/05 18:47:09;;;;;;;13.95;2.83;;;;;;;21.18;50.84;100435.03;16105950;19;131502;-65
2023/08/05 18:52:31;;;;;;;10.93;2.90;;;;;;;21.17;50.30;100428.63;16115601;19;129563;-63
2023/08/05 18:57:53;;;;;;;20.77;3.03;;;;;;;21.17;50.52;100422.22;16113980;19;129679;-64
2023/08/05 19:03:16;;;;;;;12.45;2.45;;;;;;;21.15;50.71;100408.59;16113068;19;133072;-64
2023/08/05 19:08:39;;;;;;;20.75;2.65;;;;;;;21.15;50.78;100413.31;16120383;19;129703;-68
2023/08/05 19:14:05;;;;;;;22.88;2.85;;;;;;;21.14;50.98;100401.38;16144495;19;129331;-66
2023/08/05 19:19:28;;;;;;;19.58;3.30;;;;;;;21.14;50.74;100400.53;16137377;19;130717;-67
2023/08/05 19:24:50;;;;;;;24.13;3.03;;;;;;;21.13;50.76;100405.25;16134603;19;130241;-68
2023/08/05 19:30:12;;;;;;;21.10;2.70;;;;;;;21.13;50.86;100402.47;16132500;19;131179;-67
2023/08/05 19:35:34;;;;;;;14.02;2.35;;;;;;;21.14;50.95;100401.38;16116364;19;129800;-67
2023/08/05 19:40:58;;;;;;;13.65;2.50;;;;;;;21.14;50.77;100395.81;16114539;19;130025;-70
2023/08/05 19:46:20;;;;;;;20.88;3.10;;;;;;;21.11;51.12;100390.78;16111958;19;130475;-66
2023/08/05 19:51:42;;;;;;;25.38;2.95;;;;;;;21.12;50.86;100388.84;16143180;19;130779;-68
2023/08/05 19:57:06;;;;;;;18.10;2.17;;;;;;;21.13;50.97;100385.78;16169090;19;130418;-70
2023/08/05 20:02:28;;;;;;;23.00;3.10;;;;;;;21.15;51.26;100375.22;16160030;19;129921;-63
2023/08/05 20:07:51;;;;;;;19.85;3.10;;;;;;;21.15;50.78;100375.22;16141237;19;130925;-70
2023/08/05 20:13:13;;;;;;;21.40;2.88;;;;;;;21.18;51.12;100362.72;16140000;19;130372;-75
2023/08/05 20:18:36;;;;;;;17.60;2.38;;;;;;;21.17;50.87;100366.59;16136735;19;131822;-75
2023/08/05 20:23:58;;;;;;;14.20;2.35;;;;;;;21.16;51.14;100354.66;16189394;19;129438;-73
2023/08/05 20:29:20;;;;;;;16.73;3.00;;;;;;;21.14;50.87;100351.31;16199931;19;128697;-73
2023/08/05 20:34:42;;;;;;;18.08;2.10;;;;;;;21.13;51.13;100355.19;16210286;19;129590;-74
2023/08/05 20:40:06;;;;;;;26.60;3.08;;;;;;;21.12;51.07;100347.09;16210870;19;128764;-74
2023/08/05 20:45:28;;;;;;;9.32;1.85;;;;;;;21.11;51.18;100342.69;16207555;19;128935;-74
2023/08/05 20:50:57;;;;;;;8.55;1.88;;;;;;;21.11;50.88;100337.94;16205381;19;128296;-74
2023/08/05 20:56:19;;;;;;;13.90;2.05;;;;;;;21.09;50.57;100345.72;16203753;19;128146;-73
2023/08/05 21:01:41;;;;;;;9.73;1.60;;;;;;;21.07;51.11;100334.03;16199511;19;133567;-73
2023/08/05 21:07:03;;;;;;;5.50;1.52;;;;;;;21.07;50.59;100328.47;16199717;19;129971;-76
2023/08/05 21:12:25;;;;;;;12.02;1.70;;;;;;;21.06;50.76;100310.13;16197794;19;129211;-74
2023/08/05 21:17:47;;;;;;;6.47;1.42;;;;;;;21.06;50.90;100315.69;16195826;19;131359;-74
2023/08/05 21:23:09;;;;;;;10.63;1.70;;;;;;;21.04;50.49;100307.63;16198585;19;129310;-64
2023/08/05 21:28:31;;;;;;;5.88;1.30;;;;;;;21.02;50.74;100295.13;16198422;19;129933;-67
2023/08/05 21:33:53;;;;;;;5.70;1.20;;;;;;;21.01;50.70;100285.94;16193847;19;129845;-67
2023/08/05 21:39:18;;;;;;;14.73;2.10;;;;;;;20.99;50.60;100285.38;16197672;19;130619;-67
2023/08/05 21:44:40;;;;;;;4.25;1.15;;;;;;;20.98;50.62;100269.81;16200757;19;129750;-67
2023/08/05 21:50:03;;;;;;;6.38;1.42;;;;;;;20.98;50.68;100269.81;16203579;19;128962;-67
2023/08/05 21:55:26;;;;;;;7.30;1.33;;;;;;;20.97;50.47;100267.31;16194542;19;130145;-67
2023/08/05 22:00:48;;;;;;;4.07;1.10;;;;;;;20.94;50.60;100257.56;16194522;19;133070;-66
2023/08/05 22:06:11;;;;;;;5.03;1.40;;;;;;;20.93;50.67;100255.91;16192675;19;131713;-67
2023/08/05 22:11:33;;;;;;;5.28;1.20;;;;;;;20.93;50.65;100249.50;16194889;19;130439;-67
2023/08/05 22:16:55;;;;;;;6.60;1.25;;;;;;;20.91;50.86;100241.44;16196886;19;130792;-67
2023/08/05 22:22:20;;;;;;;5.88;1.27;;;;;;;20.88;50.76;100237.28;16194246;19;129749;-67
2023/08/05 22:27:42;;;;;;;10.27;1.40;;;;;;;20.88;50.72;100233.66;16193289;19;129561;-67
2023/08/05 22:33:04;;;;;;;2.47;0.98;;;;;;;20.86;50.82;100242.28;16188408;19;130953;-66
2023/08/05 22:38:26;;;;;;;4.80;1.40;;;;;;;20.86;50.79;100235.91;16162085;19;128982;-67
2023/08/05 22:43:49;;;;;;;6.88;1.60;;;;;;;20.85;50.49;100243.41;16110599;19;129796;-67
2023/08/05 22:49:11;;;;;;;3.72;1.25;;;;;;;20.84;50.57;100236.16;16114163;19;129729;-66
2023/08/05 22:54:33;;;;;;;3.65;1.20;;;;;;;20.83;50.81;100233.69;16116731;19;130572;-67
2023/08/05 22:59:55;;;;;;;2.80;0.98;;;;;;;20.82;50.50;100232.00;16107322;19;130174;-66
2023/08/05 23:05:17;;;;;;;3.72;1.10;;;;;;;20.80;50.42;100237.81;16109263;19;131419;-67
2023/08/05 23:10:39;;;;;;;3.55;0.90;;;;;;;20.80;50.39;100240.59;16109066;19;130868;-67
2023/08/05 23:16:11;;;;;;;4.97;0.98;;;;;;;20.80;50.70;100240.59;16110265;19;130227;-67
2023/08/05 23:21:37;;;;;;;3.75;0.90;;;;;;;20.78;50.52;100226.16;16111150;19;130003;-67
2023/08/05 23:26:59;;;;;;;2.10;0.80;;;;;;;20.76;50.64;100225.63;16117915;19;129525;-66
2023/08/05 23:32:21;;;;;;;3.00;0.90;;;;;;;20.77;50.47;100227.28;16127629;19;130365;-67
2023/08/05 23:37:43;;;;;;;2.13;0.90;;;;;;;20.75;50.56;100218.34;16134743;19;134985;-67
2023/08/05 23:43:05;;;;;;;2.45;0.90;;;;;;;20.73;50.41;100223.34;16127306;19;130257;-67
2023/08/05 23:48:27;;;;;;;2.38;0.70;;;;;;;20.72;50.36;100224.47;16128948;19;130922;-67
2023/08/05 23:53:50;;;;;;;2.80;0.93;;;;;;;20.73;50.55;100235.31;16123133;19;129521;-67
2023/08/05 23:59:12;;;;;;;2.90;0.85;;;;;;;20.71;50.71;100218.06;16123342;19;131088;-67
